createdAt,value
2018-03-26T00:00:33.852Z,152.10
2018-03-26T00:03:02.201Z,139.43
2018-03-26T00:05:30.479Z,151.50
2018-03-26T00:07:58.771Z,121.03
2018-03-26T00:10:28.106Z,135.93
2018-03-26T00:12:57.182Z,128.90
2018-03-26T00:15:25.547Z,129.87
2018-03-26T00:17:53.944Z,118.83
2018-03-26T00:20:22.304Z,125.43
2018-03-26T00:22:50.690Z,130.30
2018-03-26T00:25:18.940Z,153.90
2018-03-26T00:27:47.236Z,151.60
2018-03-26T00:30:15.524Z,157.43
2018-03-26T00:32:43.794Z,155.27
2018-03-26T00:35:12.095Z,161.80
2018-03-26T00:37:41.946Z,143.03
2018-03-26T00:40:10.223Z,149.50
2018-03-26T00:42:39.254Z,120.27
2018-03-26T00:45:07.540Z,166.33
2018-03-26T00:47:35.872Z,158.60
2018-03-26T00:50:05.019Z,165.50
2018-03-26T00:52:33.417Z,133.40
2018-03-26T00:55:01.878Z,159.43
2018-03-26T00:57:30.172Z,133.83
2018-03-26T00:59:59.152Z,117.23
2018-03-26T01:02:28.240Z,138.97
2018-03-26T01:04:56.484Z,223.97
2018-03-26T01:07:24.763Z,137.47
2018-03-26T01:09:57.865Z,159.57
2018-03-26T01:12:27.040Z,118.67
2018-03-26T01:14:56.573Z,130.57
2018-03-26T01:17:34.784Z,109.47
2018-03-26T01:20:08.654Z,101.17
2018-03-26T01:22:46.524Z,173.83
2018-03-26T01:25:21.301Z,118.23
2018-03-26T01:27:55.393Z,125.27
2018-03-26T01:30:26.410Z,152.53
2018-03-26T01:33:00.435Z,132.87
2018-03-26T01:35:39.396Z,204.33
2018-03-26T01:38:08.539Z,124.20
2018-03-26T01:40:36.827Z,356.80
2018-03-26T01:43:05.129Z,660.60
2018-03-26T01:45:33.379Z,283.63
2018-03-26T01:48:01.625Z,313.30
2018-03-26T01:50:30.379Z,161.33
2018-03-26T01:52:58.756Z,129.50
2018-03-26T01:55:27.102Z,145.80
2018-03-26T01:57:55.373Z,142.83
2018-03-26T02:00:23.631Z,381.20
2018-03-26T02:02:52.039Z,658.00
2018-03-26T02:05:20.301Z,694.33
2018-03-26T02:07:49.972Z,174.67
2018-03-26T02:10:19.012Z,325.27
2018-03-26T02:12:47.273Z,545.00
2018-03-26T02:15:15.522Z,582.23
2018-03-26T02:17:43.864Z,593.90
2018-03-26T02:20:12.094Z,704.23
2018-03-26T02:22:41.108Z,478.43
2018-03-26T02:25:10.622Z,168.67
2018-03-26T02:27:38.916Z,179.20
2018-03-26T02:30:07.187Z,305.37
2018-03-26T02:32:35.478Z,376.67
2018-03-26T02:35:04.524Z,432.60
2018-03-26T02:37:34.086Z,615.50
2018-03-26T02:40:02.963Z,261.43
2018-03-26T02:42:31.442Z,182.80
2018-03-26T02:44:59.700Z,302.97
2018-03-26T02:47:28.050Z,425.50
2018-03-26T02:49:56.388Z,545.90
2018-03-26T02:52:24.891Z,529.80
2018-03-26T02:54:53.240Z,344.67
2018-03-26T02:57:21.647Z,448.83
2018-03-26T02:59:49.897Z,118.00
2018-03-26T03:02:18.139Z,159.13
2018-03-26T03:04:47.182Z,110.43
2018-03-26T03:07:15.768Z,126.47
2018-03-26T03:09:44.008Z,55.63
2018-03-26T03:12:12.237Z,57.53
2018-03-26T03:14:40.568Z,99.33
2018-03-26T03:17:08.894Z,102.47
2018-03-26T03:19:37.158Z,89.07
2018-03-26T03:22:05.623Z,144.13
2018-03-26T03:24:35.474Z,122.40
2018-03-26T03:27:03.921Z,152.43
2018-03-26T03:29:32.143Z,51.87
2018-03-26T03:32:01.298Z,134.33
2018-03-26T03:34:31.431Z,43.67
2018-03-26T03:37:00.529Z,55.53
2018-03-26T03:39:29.003Z,52.63
2018-03-26T03:41:57.365Z,44.70
2018-03-26T03:44:25.765Z,79.17
2018-03-26T03:46:54.031Z,267.73
2018-03-26T03:49:22.322Z,153.77
2018-03-26T03:51:50.995Z,64.23
2018-03-26T03:54:19.385Z,69.37
2018-03-26T03:56:47.884Z,97.37
2018-03-26T03:59:16.262Z,281.00
2018-03-26T04:01:44.506Z,94.00
2018-03-26T04:04:12.766Z,104.00
2018-03-26T04:06:41.811Z,78.90
2018-03-26T04:09:11.632Z,171.70
2018-03-26T04:11:41.698Z,37.13
2018-03-26T04:14:10.101Z,65.07
2018-03-26T04:16:38.474Z,144.60
2018-03-26T04:19:06.881Z,96.67
2018-03-26T04:21:35.142Z,43.20
2018-03-26T04:24:03.464Z,42.47
2018-03-26T04:26:31.703Z,133.43
2018-03-26T04:28:59.965Z,148.97
2018-03-26T04:31:28.265Z,123.37
2018-03-26T04:33:56.522Z,91.23
2018-03-26T04:36:24.812Z,86.13
2018-03-26T04:38:54.596Z,131.80
2018-03-26T04:41:24.541Z,128.83
2018-03-26T04:43:53.692Z,176.30
2018-03-26T04:46:22.718Z,126.43
2018-03-26T04:48:50.982Z,110.53
2018-03-26T04:51:19.296Z,148.47
2018-03-26T04:53:49.015Z,177.40
2018-03-26T04:56:18.208Z,142.97
2018-03-26T04:58:46.472Z,85.57
2018-03-26T05:01:17.822Z,45.90
2018-03-26T05:03:47.650Z,39.10
2018-03-26T05:06:16.594Z,52.40
2018-03-26T05:08:45.631Z,33.10
2018-03-26T05:11:13.965Z,32.00
2018-03-26T05:13:42.265Z,39.63
2018-03-26T05:16:10.471Z,34.43
2018-03-26T05:18:38.733Z,65.50
2018-03-26T05:21:07.286Z,21.27
2018-03-26T05:23:35.567Z,23.33
2018-03-26T05:26:04.712Z,47.73
2018-03-26T05:28:33.016Z,51.67
2018-03-26T05:31:02.789Z,49.10
2018-03-26T05:33:31.162Z,27.33
2018-03-26T05:35:59.571Z,46.93
2018-03-26T05:38:28.065Z,33.77
2018-03-26T05:40:56.410Z,27.67
2018-03-26T05:43:24.684Z,46.30
2018-03-26T05:45:53.167Z,33.63
2018-03-26T05:48:21.413Z,23.80
2018-03-26T05:50:49.729Z,29.33
2018-03-26T05:53:18.212Z,30.13
2018-03-26T05:55:46.497Z,21.97
2018-03-26T05:58:14.874Z,23.53
2018-03-26T06:00:43.132Z,20.00
2018-03-26T06:03:11.520Z,28.87
2018-03-26T06:05:40.101Z,29.13
2018-03-26T06:08:08.372Z,28.90
2018-03-26T06:10:36.668Z,21.03
2018-03-26T06:13:05.065Z,17.70
2018-03-26T06:15:34.421Z,20.93
2018-03-26T06:18:03.560Z,28.60
2018-03-26T06:20:32.640Z,17.67
2018-03-26T06:23:01.154Z,14.80
2018-03-26T06:25:30.612Z,15.07
2018-03-26T06:27:59.721Z,15.40
2018-03-26T06:30:28.283Z,16.40
2018-03-26T06:32:56.614Z,16.93
2018-03-26T06:35:25.702Z,16.93
2018-03-26T06:41:03.434Z,17.63
2018-03-26T06:43:31.708Z,17.53
2018-03-26T06:46:00.764Z,31.30
2018-03-26T06:48:29.005Z,162.03
2018-03-26T06:50:58.583Z,23.00
2018-03-26T06:53:26.868Z,48.20
2018-03-26T06:55:56.936Z,27.43
2018-03-26T06:58:26.022Z,30.17
2018-03-26T07:00:54.257Z,33.50
2018-03-26T07:03:22.617Z,26.13
2018-03-26T07:05:50.891Z,30.47
2018-03-26T07:08:19.229Z,20.10
2018-03-26T07:10:47.480Z,19.83
2018-03-26T07:13:15.936Z,18.37
2018-03-26T07:15:44.169Z,19.13
2018-03-26T07:18:13.400Z,29.70
2018-03-26T07:20:41.650Z,21.23
2018-03-26T07:23:09.899Z,20.47
2018-03-26T07:25:39.205Z,20.40
2018-03-26T07:28:08.329Z,20.33
2018-03-26T07:30:36.663Z,22.60
2018-03-26T07:33:04.925Z,24.00
2018-03-26T07:35:33.199Z,25.43
2018-03-26T07:38:01.562Z,19.97
2018-03-26T07:40:29.958Z,35.10
2018-03-26T07:42:58.204Z,28.50
2018-03-26T07:45:27.325Z,28.43
2018-03-26T07:47:55.629Z,22.90
2018-03-26T07:50:24.076Z,24.10
2018-03-26T07:52:52.381Z,18.40
2018-03-26T07:55:20.650Z,43.33
2018-03-26T07:57:48.912Z,43.77
2018-03-26T08:00:17.397Z,34.10
2018-03-26T08:02:45.673Z,22.23
2018-03-26T08:05:14.742Z,27.93
2018-03-26T08:07:43.876Z,19.30
2018-03-26T08:10:12.158Z,16.10
2018-03-26T08:12:40.540Z,17.47
2018-03-26T08:15:08.829Z,19.97
2018-03-26T08:17:37.221Z,14.20
2018-03-26T08:20:05.692Z,15.00
2018-03-26T08:22:34.130Z,15.80
2018-03-26T08:25:02.430Z,19.30
2018-03-26T08:27:30.702Z,19.53
2018-03-26T08:29:59.010Z,15.50
2018-03-26T08:32:28.666Z,16.53
2018-03-26T08:34:57.069Z,16.23
2018-03-26T08:37:25.329Z,17.67
2018-03-26T08:39:53.828Z,16.27
2018-03-26T08:42:22.249Z,15.37
2018-03-26T08:44:50.563Z,15.17
2018-03-26T08:47:18.853Z,14.53
2018-03-26T08:49:47.290Z,18.80
2018-03-26T08:52:15.736Z,17.07
2018-03-26T08:54:43.989Z,14.97
2018-03-26T08:57:12.254Z,13.13
2018-03-26T08:59:40.762Z,17.67
2018-03-26T09:02:08.983Z,16.00
2018-03-26T09:04:37.642Z,15.70
2018-03-26T09:07:06.010Z,16.10
2018-03-26T09:09:34.576Z,13.63
2018-03-26T09:12:04.565Z,14.27
2018-03-26T09:14:33.080Z,13.60
2018-03-26T09:17:01.319Z,12.57
2018-03-26T09:19:29.703Z,12.17
2018-03-26T09:21:59.134Z,13.63
2018-03-26T09:24:27.419Z,14.73
2018-03-26T09:26:55.635Z,13.97
2018-03-26T09:29:23.854Z,12.57
2018-03-26T09:31:53.052Z,13.53
2018-03-26T09:34:21.299Z,13.60
2018-03-26T09:36:49.690Z,13.07
2018-03-26T09:39:17.934Z,10.50
2018-03-26T09:41:46.168Z,10.90
2018-03-26T09:44:14.671Z,13.40
2018-03-26T09:46:42.884Z,14.10
2018-03-26T09:49:11.131Z,10.73
2018-03-26T09:51:39.339Z,9.93
2018-03-26T09:54:07.569Z,8.90
2018-03-26T09:56:35.821Z,8.23
2018-03-26T09:59:04.834Z,9.20
2018-03-26T10:01:33.964Z,9.63
2018-03-26T10:04:02.235Z,9.33
2018-03-26T10:06:30.621Z,10.27
2018-03-26T10:08:59.588Z,8.27
2018-03-26T10:11:28.085Z,9.37
2018-03-26T10:13:56.390Z,11.10
2018-03-26T10:16:25.328Z,13.37
2018-03-26T10:18:53.656Z,12.00
2018-03-26T10:21:22.028Z,11.37
2018-03-26T10:23:50.288Z,18.57
2018-03-26T10:26:18.692Z,7.83
2018-03-26T10:28:46.978Z,8.83
2018-03-26T10:31:16.274Z,8.97
2018-03-26T10:33:45.408Z,10.47
2018-03-26T10:36:13.812Z,10.80
2018-03-26T10:38:42.168Z,8.27
2018-03-26T10:41:10.646Z,7.70
2018-03-26T10:43:39.688Z,7.87
2018-03-26T10:46:07.988Z,6.37
2018-03-26T10:48:36.375Z,6.20
2018-03-26T10:51:04.758Z,7.30
2018-03-26T10:53:33.241Z,7.67
2018-03-26T10:56:02.400Z,11.53
2018-03-26T10:58:30.704Z,6.87
2018-03-26T11:00:59.779Z,7.93
2018-03-26T11:03:29.319Z,8.50
2018-03-26T11:05:57.657Z,9.27
2018-03-26T11:08:25.937Z,11.20
2018-03-26T11:10:54.268Z,10.07
2018-03-26T11:13:23.317Z,10.47
2018-03-26T11:15:51.560Z,12.93
2018-03-26T11:18:19.812Z,11.53
2018-03-26T11:20:48.939Z,14.03
2018-03-26T11:23:17.169Z,12.40
2018-03-26T11:25:45.487Z,14.13
2018-03-26T11:28:13.841Z,12.07
2018-03-26T11:30:42.928Z,12.73
2018-03-26T11:33:11.214Z,11.33
2018-03-26T11:35:39.438Z,12.87
2018-03-26T11:38:08.400Z,15.27
2018-03-26T11:40:38.300Z,16.90
2018-03-26T11:43:06.648Z,26.93
2018-03-26T11:45:35.274Z,25.63
2018-03-26T11:48:04.464Z,28.30
2018-03-26T11:50:33.624Z,29.13
2018-03-26T11:53:01.905Z,31.57
2018-03-26T11:55:30.308Z,27.23
2018-03-26T11:57:58.759Z,20.50
2018-03-26T12:00:27.035Z,18.67
2018-03-26T12:03:03.128Z,17.67
2018-03-26T12:05:35.916Z,14.77
2018-03-26T12:08:04.209Z,19.57
2018-03-26T12:10:44.732Z,28.33
2018-03-26T12:13:16.530Z,19.50
2018-03-26T12:15:45.581Z,21.53
2018-03-26T12:18:13.851Z,17.73
2018-03-26T12:20:54.119Z,18.63
2018-03-26T12:23:35.811Z,15.30
2018-03-26T12:26:04.284Z,20.57
2018-03-26T12:28:44.693Z,16.93
2018-03-26T12:31:13.750Z,17.47
2018-03-26T12:33:53.966Z,23.37
2018-03-26T12:36:22.398Z,18.33
2018-03-26T12:38:50.779Z,18.37
2018-03-26T12:41:19.271Z,17.50
2018-03-26T12:43:48.337Z,15.83
2018-03-26T12:46:28.516Z,12.87
2018-03-26T12:48:57.005Z,11.57
2018-03-26T12:51:38.069Z,14.30
2018-03-26T12:54:06.368Z,12.13
2018-03-26T12:56:35.493Z,9.20
2018-03-26T12:59:05.596Z,6.40
2018-03-26T13:01:53.415Z,4.67
2018-03-26T13:04:25.472Z,9.67
2018-03-26T13:06:57.293Z,8.33
2018-03-26T13:09:27.264Z,7.27
2018-03-26T13:11:55.580Z,5.80
2018-03-26T13:14:23.871Z,6.67
2018-03-26T13:16:52.133Z,22.50
2018-03-26T13:19:20.536Z,5.33
2018-03-26T13:21:48.861Z,5.60
2018-03-26T13:24:17.223Z,5.10
2018-03-26T13:26:45.715Z,6.20
2018-03-26T13:29:14.082Z,5.73
2018-03-26T13:31:43.175Z,8.23
2018-03-26T13:34:12.656Z,5.17
2018-03-26T13:36:40.977Z,4.37
2018-03-26T13:39:10.899Z,7.33
2018-03-26T13:41:39.180Z,5.87
2018-03-26T13:44:07.724Z,8.03
2018-03-26T13:46:35.930Z,6.83
2018-03-26T13:49:04.248Z,9.23
2018-03-26T13:51:34.279Z,7.40
2018-03-26T13:54:03.334Z,7.00
2018-03-26T13:56:32.425Z,5.20
2018-03-26T13:59:01.604Z,5.10
2018-03-26T14:01:30.042Z,3.67
2018-03-26T14:03:59.067Z,5.80
2018-03-26T14:06:27.401Z,8.07
2018-03-26T14:09:07.510Z,7.97
2018-03-26T14:11:47.758Z,7.77
2018-03-26T14:14:27.948Z,9.40
2018-03-26T14:17:08.290Z,6.97
2018-03-26T14:19:36.668Z,7.63
2018-03-26T14:22:05.161Z,6.97
2018-03-26T14:24:33.436Z,6.20
2018-03-26T14:27:01.668Z,9.57
2018-03-26T14:29:30.810Z,6.97
2018-03-26T14:31:59.093Z,7.13
2018-03-26T14:34:27.483Z,7.00
2018-03-26T14:36:55.728Z,8.10
2018-03-26T14:39:27.123Z,6.83
2018-03-26T14:41:55.481Z,9.60
2018-03-26T14:44:23.772Z,9.47
2018-03-26T14:46:52.803Z,9.03
2018-03-26T14:49:21.943Z,9.23
2018-03-26T14:51:50.197Z,8.83
2018-03-26T14:54:18.771Z,8.20
2018-03-26T14:56:47.835Z,10.57
2018-03-26T14:59:16.185Z,10.10
2018-03-26T15:01:44.658Z,9.60
2018-03-26T15:04:13.016Z,10.87
2018-03-26T15:06:41.346Z,8.10
2018-03-26T15:09:09.626Z,8.20
2018-03-26T15:11:37.979Z,6.50
2018-03-26T15:14:06.369Z,8.50
2018-03-26T15:16:35.961Z,6.20
2018-03-26T15:19:04.391Z,7.23
2018-03-26T15:21:33.497Z,8.77
2018-03-26T15:24:02.953Z,7.17
2018-03-26T15:26:31.349Z,6.03
2018-03-26T15:29:00.504Z,6.43
2018-03-26T15:31:29.785Z,8.30
2018-03-26T15:33:58.137Z,6.30
2018-03-26T15:36:26.412Z,8.03
2018-03-26T15:38:55.399Z,6.63
2018-03-26T15:41:23.653Z,8.40
2018-03-26T15:43:51.918Z,7.53
2018-03-26T15:46:20.372Z,10.27
2018-03-26T15:48:48.807Z,9.97
2018-03-26T15:51:17.096Z,12.10
2018-03-26T15:53:45.802Z,9.07
2018-03-26T15:56:14.970Z,8.50
2018-03-26T15:58:43.274Z,10.03
2018-03-26T16:01:11.628Z,5.90
2018-03-26T16:03:39.962Z,6.10
2018-03-26T16:06:08.333Z,7.57
2018-03-26T16:08:36.667Z,9.97
2018-03-26T16:11:04.933Z,9.20
2018-03-26T16:13:33.395Z,7.03
2018-03-26T16:16:02.512Z,7.73
2018-03-26T16:18:30.962Z,8.07
2018-03-26T16:21:00.189Z,9.67
2018-03-26T16:23:28.467Z,7.60
2018-03-26T16:25:56.868Z,8.53
2018-03-26T16:28:25.201Z,9.87
2018-03-26T16:30:54.209Z,6.27
2018-03-26T16:33:22.618Z,10.80
2018-03-26T16:35:52.057Z,8.83
2018-03-26T16:38:21.183Z,7.53
2018-03-26T16:40:49.503Z,8.07
2018-03-26T16:43:18.045Z,9.10
2018-03-26T16:45:46.462Z,9.03
2018-03-26T16:48:15.053Z,9.93
2018-03-26T16:50:43.440Z,10.90
2018-03-26T16:53:11.807Z,9.17
2018-03-26T16:55:40.185Z,6.83
2018-03-26T16:58:08.547Z,13.50
2018-03-26T17:00:36.828Z,9.93
2018-03-26T17:03:05.127Z,11.97
2018-03-26T17:05:34.142Z,9.07
2018-03-26T17:08:02.402Z,10.00
2018-03-26T17:10:30.706Z,8.37
2018-03-26T17:12:59.599Z,9.23
2018-03-26T17:15:28.160Z,7.67
2018-03-26T17:17:56.592Z,10.30
2018-03-26T17:20:25.021Z,8.80
2018-03-26T17:22:53.386Z,10.10
2018-03-26T17:25:21.692Z,10.27
2018-03-26T17:27:50.013Z,10.40
2018-03-26T17:30:18.301Z,11.57
2018-03-26T17:32:46.724Z,8.80
2018-03-26T17:35:16.513Z,10.17
2018-03-26T17:37:44.883Z,7.00
2018-03-26T17:40:13.160Z,10.30
2018-03-26T17:42:42.273Z,7.13
2018-03-26T17:45:10.654Z,8.10
2018-03-26T17:47:39.008Z,8.90
2018-03-26T17:50:09.474Z,6.77
2018-03-26T17:52:37.873Z,8.30
2018-03-26T17:55:06.984Z,9.33
2018-03-26T17:57:36.086Z,11.80
2018-03-26T18:00:05.168Z,8.13
2018-03-26T18:02:33.734Z,8.63
2018-03-26T18:05:02.016Z,8.07
2018-03-26T18:07:30.326Z,6.40
2018-03-26T18:09:58.585Z,9.67
2018-03-26T18:12:26.849Z,12.07
2018-03-26T18:14:55.203Z,8.67
2018-03-26T18:17:23.577Z,7.40
2018-03-26T18:19:51.987Z,9.23
2018-03-26T18:22:20.231Z,8.40
2018-03-26T18:24:48.598Z,8.20
2018-03-26T18:27:17.425Z,9.50
2018-03-26T18:29:45.717Z,9.03
2018-03-26T18:32:13.957Z,10.60
2018-03-26T18:34:42.254Z,10.47
2018-03-26T18:37:10.639Z,9.37
2018-03-26T18:39:38.987Z,7.37
2018-03-26T18:42:07.662Z,8.50
2018-03-26T18:44:36.129Z,9.77
2018-03-26T18:47:04.426Z,8.40
2018-03-26T18:49:33.701Z,9.70
2018-03-26T18:52:03.405Z,10.33
2018-03-26T18:54:32.586Z,9.70
2018-03-26T18:57:00.948Z,9.90
2018-03-26T18:59:29.651Z,12.30
2018-03-26T19:01:57.911Z,12.23
2018-03-26T19:04:26.254Z,12.63
2018-03-26T19:06:54.579Z,11.10
2018-03-26T19:09:23.274Z,10.43
2018-03-26T19:11:51.623Z,10.17
2018-03-26T19:14:19.904Z,13.33
2018-03-26T19:16:48.179Z,8.90
2018-03-26T19:19:18.256Z,10.13
2018-03-26T19:21:47.923Z,10.17
2018-03-26T19:24:16.465Z,11.17
2018-03-26T19:26:45.626Z,12.90
2018-03-26T19:29:14.864Z,11.47
2018-03-26T19:31:43.991Z,10.43
2018-03-26T19:34:13.729Z,11.43
2018-03-26T19:36:42.042Z,9.67
2018-03-26T19:39:11.148Z,12.93
2018-03-26T19:41:39.792Z,12.47
2018-03-26T19:44:08.247Z,14.37
2018-03-26T19:46:36.840Z,14.23
2018-03-26T19:49:05.958Z,14.23
2018-03-26T19:51:34.634Z,15.83
2018-03-26T19:54:03.022Z,13.83
2018-03-26T19:56:32.401Z,19.17
2018-03-26T19:59:01.212Z,21.63
2018-03-26T20:01:29.564Z,29.13
2018-03-26T20:03:58.093Z,30.23
2018-03-26T20:06:26.518Z,27.93
2018-03-26T20:08:55.943Z,25.97
2018-03-26T20:11:24.397Z,25.30
2018-03-26T20:13:53.828Z,22.00
2018-03-26T20:16:23.554Z,19.80
2018-03-26T20:18:52.002Z,22.30
2018-03-26T20:21:20.431Z,23.63
2018-03-26T20:23:48.712Z,34.13
2018-03-26T20:26:16.967Z,23.07
2018-03-26T20:28:45.203Z,21.67
2018-03-26T20:31:13.493Z,19.17
2018-03-26T20:33:42.091Z,18.57
2018-03-26T20:36:10.507Z,17.40
2018-03-26T20:38:38.817Z,19.00
2018-03-26T20:41:07.062Z,22.07
2018-03-26T20:43:35.381Z,19.70
2018-03-26T20:46:06.271Z,18.33
2018-03-26T20:48:35.344Z,18.57
2018-03-26T20:51:05.314Z,21.97
2018-03-26T20:53:35.179Z,19.73
2018-03-26T20:56:04.265Z,18.30
2018-03-26T20:58:32.590Z,18.60
2018-03-26T21:01:03.717Z,15.57
2018-03-26T21:03:31.976Z,18.73
2018-03-26T21:06:00.294Z,17.53
2018-03-26T21:08:30.406Z,17.83
2018-03-26T21:10:58.672Z,15.90
2018-03-26T21:13:27.049Z,17.13
2018-03-26T21:15:56.144Z,17.87
2018-03-26T21:18:24.402Z,17.40
2018-03-26T21:20:52.704Z,16.60
2018-03-26T21:23:22.020Z,17.47
2018-03-26T21:25:51.922Z,15.63
2018-03-26T21:28:21.667Z,16.63
2018-03-26T21:30:51.254Z,24.87
2018-03-26T21:33:19.823Z,18.03
2018-03-26T21:35:48.417Z,18.00
2018-03-26T21:38:16.800Z,20.43
2018-03-26T21:40:47.071Z,19.53
2018-03-26T21:43:15.350Z,18.50
2018-03-26T21:45:46.328Z,18.83
2018-03-26T21:48:15.441Z,17.80
2018-03-26T21:50:43.754Z,19.47
2018-03-26T21:53:12.157Z,17.97
2018-03-26T21:55:41.150Z,19.07
2018-03-26T21:58:09.526Z,19.20
2018-03-26T22:00:38.773Z,19.47
2018-03-26T22:03:10.504Z,19.97
2018-03-26T22:05:38.886Z,20.37
2018-03-26T22:08:08.034Z,17.97
2018-03-26T22:10:36.623Z,16.90
2018-03-26T22:13:05.697Z,18.37
2018-03-26T22:15:34.999Z,16.67
2018-03-26T22:18:03.309Z,17.20
2018-03-26T22:20:32.357Z,18.23
2018-03-26T22:23:00.657Z,22.17
2018-03-26T22:25:29.141Z,21.20
2018-03-26T22:27:59.426Z,22.80
2018-03-26T22:30:27.839Z,22.43
2018-03-26T22:32:56.129Z,20.10
2018-03-26T22:35:24.621Z,18.17
2018-03-26T22:37:53.843Z,18.73
2018-03-26T22:40:22.900Z,24.53
2018-03-26T22:42:51.335Z,17.20
2018-03-26T22:45:19.952Z,17.10
2018-03-26T22:47:48.433Z,20.90
2018-03-26T22:50:17.526Z,15.93
2018-03-26T22:52:47.626Z,19.90
2018-03-26T22:55:16.582Z,17.20
2018-03-26T22:57:45.358Z,19.27
2018-03-26T23:00:14.750Z,19.23
2018-03-26T23:02:44.548Z,15.50
2018-03-26T23:05:12.839Z,17.37
2018-03-26T23:07:41.142Z,18.50
2018-03-26T23:10:09.598Z,15.57
2018-03-26T23:12:37.869Z,17.60
2018-03-26T23:15:06.146Z,19.50
2018-03-26T23:17:34.380Z,21.13
2018-03-26T23:20:02.723Z,23.13
2018-03-26T23:22:43.160Z,22.50
2018-03-26T23:25:11.640Z,32.07
2018-03-26T23:27:40.034Z,31.37
2018-03-26T23:30:09.144Z,27.23
2018-03-26T23:32:37.502Z,25.57
2018-03-26T23:35:05.914Z,24.30
2018-03-26T23:37:35.186Z,25.40
2018-03-26T23:40:03.706Z,24.33
2018-03-26T23:42:31.954Z,26.27
2018-03-26T23:45:00.249Z,25.37
2018-03-26T23:47:28.536Z,29.63
2018-03-26T23:49:56.892Z,32.00
2018-03-26T23:52:26.075Z,30.83
2018-03-26T23:54:54.463Z,34.80
2018-03-26T23:57:23.145Z,37.23
2018-03-26T23:59:51.743Z,32.93
